Latest Weather Observations for Giles*

IDW60801

Issued at 3:02 pm WST Friday 28 August 2015 (issued every 30 minutes, with the page automatically refreshed every 10 minutes)

About weather observations | Map of weather stations | Latest weather observations for WA | Other Formats
Station Details ID: 013017 Name: GILES METEOROLOGICAL OFFICE Lat: -25.03 Lon: 128.30 Height: 598.0 m
Data from the previous 72 hours. | See also: Recent months at Giles*

* Giles observations are collected in the South Australia time zone, which includes daylight saving in the summer period. Therefore, Rain since 9am value is with respect to South Australia local time.

Date/Time
WST
Temp
°C
App
Temp
°C
Dew
Point
Rel
Hum
%
Delta-T
°C
Wind Press
QNH
hPa
Press
MSL
hPa
Rain
since 9 am
mm
Dir
 
Spd
km/h
Gust
km/h
Spd
kts
Gust
kts
28/02:30pm 24.4 20.4 0.8 21 11.3 NNW 11 26 6 14 1018.6 1017.3 0.0
28/02:00pm 24.3 20.3 0.6 21 11.3 NNW 11 22 6 12 1018.8 1017.5 0.0
28/01:30pm 23.8 19.7 2.1 24 10.6 ENE 13 22 7 12 1019.2 1017.9 0.0
28/01:00pm 24.1 19.4 3.3 25 10.4 NNW 17 26 9 14 1019.6 1018.3 0.0
28/12:30pm 23.8 20.2 4.9 29 9.7 NNW 13 26 7 14 1019.9 1018.6 0.0
28/12:00pm 23.1 18.4 5.2 31 9.2 N 19 32 10 17 1020.4 1019.1 0.0
28/11:30am 22.9 18.3 5.7 32 8.9 N 19 33 10 18 1021.0 1019.7 0.0
28/11:00am 23.1 18.5 5.5 32 9.1 N 19 30 10 16 1021.7 1020.4 0.0
28/10:30am 21.6 17.0 5.6 35 8.2 N 19 32 10 17 1022.2 1021.0 0.0
28/10:00am 21.1 17.1 6.5 38 7.6 NE 17 26 9 14 1022.5 1021.3 0.0
28/09:30am 20.0 16.1 6.9 42 6.8 NNE 17 24 9 13 1022.9 1021.6 0.0
28/09:00am 19.7 15.5 5.7 40 7.1 ENE 17 22 9 12 1022.9 1021.6 0.0
28/08:30am 18.2 13.3 4.0 39 6.9 E 19 24 10 13 1023.1 1021.8 0.0
28/08:00am 17.1 12.0 2.9 38 6.7 ENE 19 26 10 14 1023.0 1021.7 0.0
28/07:30am 16.1 10.7 2.5 40 6.3 ENE 20 28 11 15 1022.9 1021.6 0.0
28/07:00am 14.8 10.3 2.0 42 5.8 ENE 15 20 8 11 1022.7 1021.4 0.0
28/06:30am 13.8 9.7 2.3 45 5.2 E 13 20 7 11 1021.9 1020.6 0.0
28/06:00am 12.8 7.5 1.8 47 4.9 ESE 19 26 10 14 1021.2 1019.9 0.0
28/05:30am 12.7 7.8 1.9 47 4.8 ESE 17 22 9 12 1021.2 1019.9 0.0
28/05:00am 13.0 8.5 2.1 47 4.9 E 15 24 8 13 1020.9 1019.6 0.0
28/04:30am 13.3 9.2 2.5 48 4.9 E 13 19 7 10 1020.6 1019.4 0.0
28/04:00am 13.3 9.7 3.1 50 4.7 ESE 11 20 6 11 1020.2 1018.9 0.0
28/03:30am 14.3 9.5 2.8 46 5.3 E 17 28 9 15 1020.0 1018.7 0.0
28/03:00am 14.8 8.7 2.6 44 5.6 E 24 37 13 20 1019.7 1018.4 0.0
28/02:30am 14.4 9.2 2.6 45 5.4 E 19 28 10 15 1020.0 1018.7 0.0
28/02:00am 14.7 9.3 2.5 43 5.6 E 20 28 11 15 1020.0 1018.7 0.0
28/01:30am 15.1 8.9 2.2 41 5.9 E 24 35 13 19 1020.0 1018.7 0.0
28/01:00am 15.5 9.4 2.5 41 6.0 E 24 33 13 18 1020.4 1019.1 0.0
28/12:30am 15.6 9.1 2.4 41 6.1 E 26 35 14 19 1020.5 1019.3 0.0
28/12:00am 16.0 9.0 1.8 38 6.5 E 28 37 15 20 1020.4 1019.1 0.0
 
Date/Time
WST
Temp
°C
App
Temp
°C
Dew
Point
Rel
Hum
%
Delta-T
°C
Wind Press
QNH
hPa
Press
MSL
hPa
Rain
since 9 am
mm
Dir
 
Spd
km/h
Gust
km/h
Spd
kts
Gust
kts
27/11:30pm 16.2 9.2 1.8 38 6.6 E 28 37 15 20 1020.6 1019.4 0.0
27/11:00pm 16.0 10.5 2.1 39 6.4 E 20 30 11 16 1021.0 1019.7 0.0
27/10:30pm 16.0 10.5 2.1 39 6.4 E 20 28 11 15 1021.3 1020.0 0.0
27/10:00pm 16.2 10.7 1.8 38 6.6 E 20 24 11 13 1021.7 1020.4 0.0
27/09:30pm 16.4 10.8 1.5 36 6.8 E 20 26 11 14 1021.6 1020.3 0.0
27/09:00pm 16.5 11.5 1.3 36 6.9 E 17 22 9 12 1021.6 1020.3 0.0
27/08:30pm 16.6 12.0 1.5 36 6.9 E 15 19 8 10 1021.6 1020.3 0.0
27/08:00pm 17.2 12.6 1.5 34 7.2 E 15 19 8 10 1021.5 1020.2 0.0
27/07:30pm 18.1 13.5 1.4 32 7.7 E 15 20 8 11 1021.3 1020.0 0.0
27/07:00pm 18.9 14.7 1.5 31 8.1 ENE 13 17 7 9 1021.0 1019.7 0.0
27/06:30pm 19.1 14.9 1.5 31 8.2 E 13 15 7 8 1020.7 1019.5 0.0
27/06:00pm 19.7 15.9 1.9 30 8.4 ENE 11 15 6 8 1020.4 1019.1 0.0
27/05:30pm 20.5 17.1 1.7 28 8.9 ENE 9 11 5 6 1020.1 1018.8 0.0
27/05:00pm 22.0 18.1 1.4 25 9.8 ENE 11 19 6 10 1019.9 1018.6 0.0
27/04:30pm 22.4 18.1 0.7 23 10.2 NE 13 17 7 9 1019.6 1018.3 0.0
27/04:00pm 22.9 19.5 -0.5 21 10.8 ENE 7 13 4 7 1019.5 1018.2 0.0
27/03:30pm 23.5 19.8 0.0 21 11.0 NNE 9 15 5 8 1019.2 1017.9 0.0
27/03:00pm 23.3 18.6 1.1 23 10.6 ENE 15 24 8 13 1019.3 1018.0 0.0
27/02:30pm 23.1 18.5 1.4 24 10.4 ENE 15 28 8 15 1019.3 1018.0 0.0
27/02:00pm 23.4 18.8 1.6 24 10.5 ENE 15 28 8 15 1019.4 1018.1 0.0
27/01:30pm 22.6 18.6 2.8 27 9.7 NE 13 22 7 12 1019.5 1018.2 0.0
27/01:00pm 21.9 17.0 2.2 27 9.5 ENE 17 26 9 14 1019.8 1018.5 0.0
27/12:30pm 22.1 18.0 4.1 30 9.0 NE 15 28 8 15 1020.1 1018.8 0.0
27/12:00pm 22.7 18.3 0.2 22 10.5 ENE 13 22 7 12 1020.6 1019.4 0.0
27/11:30am 21.4 17.7 4.4 33 8.5 ENE 13 22 7 12 1021.2 1019.9 0.0
27/11:00am 20.8 16.5 5.2 36 7.9 E 17 24 9 13 1021.8 1020.5 0.0
27/10:30am 20.0 15.7 5.3 38 7.4 ENE 17 24 9 13 1022.3 1021.1 0.0
27/10:00am 19.3 15.2 6.2 42 6.7 E 17 26 9 14 1022.9 1021.6 0.0
27/09:30am 18.1 13.5 6.5 46 5.9 E 20 30 11 16 1023.3 1022.0 0.0
27/09:00am 16.8 11.5 6.8 51 5.1 E 24 33 13 18 1023.5 1022.3 0.0
27/08:30am 15.6 10.4 7.1 57 4.3 E 24 33 13 18 1023.6 1022.4 0.0
27/08:00am 14.4 8.5 7.3 62 3.6 E 28 39 15 21 1023.6 1022.4 0.0
27/07:30am 13.6 8.5 7.7 67 3.0 E 24 33 13 18 1023.2 1021.9 0.0
27/07:00am 12.5 7.0 7.7 72 2.4 E 26 35 14 19 1022.8 1021.5 0.0
27/06:30am 11.5 6.8 7.9 78 1.8 ESE 22 30 12 16 1022.3 1021.1 0.0
27/06:00am 10.3 6.5 7.7 84 1.3 ESE 17 26 9 14 1021.9 1020.6 0.0
27/05:30am 10.5 7.2 7.9 84 1.3 ESE 15 20 8 11 1021.9 1020.6 0.0
27/05:00am 11.2 7.9 8.0 81 1.6 ESE 15 20 8 11 1021.5 1020.2 0.0
27/04:30am 11.4 7.7 7.8 78 1.8 ESE 17 26 9 14 1021.1 1019.8 0.0
27/04:00am 11.8 8.0 7.6 75 2.1 E 17 24 9 13 1020.9 1019.6 0.0
27/03:30am 12.0 7.8 7.4 73 2.3 E 19 26 10 14 1020.7 1019.5 0.0
27/03:00am 12.2 7.9 7.2 71 2.5 E 19 28 10 15 1020.9 1019.6 0.0
27/02:30am 12.4 7.9 7.0 69 2.7 E 20 28 11 15 1020.6 1019.4 0.0
27/02:00am 12.7 9.1 6.8 67 2.9 E 15 22 8 12 1021.0 1019.7 0.0
27/01:30am 13.2 7.9 6.7 64 3.2 E 24 35 13 19 1021.1 1019.8 0.0
27/01:00am 13.4 8.9 6.8 64 3.3 E 20 30 11 16 1020.9 1019.6 0.0
27/12:30am 13.5 9.1 6.4 62 3.5 ESE 19 26 10 14 1021.0 1019.7 0.0
27/12:00am 13.8 9.8 6.5 61 3.6 ESE 17 20 9 11 1021.1 1019.8 0.0
 
Date/Time
WST
Temp
°C
App
Temp
°C
Dew
Point
Rel
Hum
%
Delta-T
°C
Wind Press
QNH
hPa
Press
MSL
hPa
Rain
since 9 am
mm
Dir
 
Spd
km/h
Gust
km/h
Spd
kts
Gust
kts
26/11:30pm 14.2 9.9 6.8 61 3.7 ESE 19 24 10 13 1021.0 1019.7 0.0
26/11:00pm 14.8 10.4 6.6 58 4.1 ESE 19 26 10 14 1021.0 1019.7 0.0
26/10:30pm 15.4 10.7 5.9 53 4.7 ESE 20 28 11 15 1021.0 1019.7 0.0
26/10:00pm 16.1 10.9 5.3 48 5.3 ESE 22 30 12 16 1021.3 1020.0 0.0
26/09:30pm 16.0 11.0 3.8 44 5.8 SE 19 26 10 14 1021.1 1019.8 0.0
26/09:00pm 16.5 12.3 3.7 42 6.1 SE 15 20 8 11 1021.2 1019.9 0.0
26/08:30pm 16.8 12.9 3.6 41 6.3 ESE 13 20 7 11 1021.0 1019.7 0.0
26/08:00pm 17.7 13.0 3.2 38 6.9 ESE 17 24 9 13 1020.9 1019.6 0.0
26/07:30pm 18.0 13.7 3.4 38 7.0 ESE 15 20 8 11 1020.7 1019.5 0.0
26/07:00pm 18.5 14.1 2.7 35 7.5 SE 15 22 8 12 1020.5 1019.3 0.0
26/06:30pm 17.9 14.0 1.1 32 7.7 SE 11 13 6 7 1020.1 1018.8 0.0
26/06:00pm 19.1 16.3 2.1 32 8.0 SE 6 9 3 5 1019.8 1018.5 0.0
26/05:30pm 20.4 18.5 0.8 27 9.1 CALM 0 6 0 3 1019.5 1018.2 0.0
26/05:00pm 21.4 18.1 0.2 24 9.8 S 7 9 4 5 1019.3 1018.0 0.0
26/04:30pm 22.4 19.3 1.1 24 10.1 SE 7 11 4 6 1018.9 1017.6 0.0
26/04:00pm 22.1 18.1 0.5 24 10.1 ESE 11 17 6 9 1018.7 1017.4 0.0
26/03:30pm 23.0 20.2 2.9 26 9.9 NNW 7 20 4 11 1018.6 1017.3 0.0
26/03:00pm 23.2 18.7 -0.2 21 10.9 ENE 13 20 7 11 1018.5 1017.2 0.0
26/02:30pm 22.9 18.4 -0.1 21 10.7 NNW 13 19 7 10 1018.5 1017.2 0.0
26/02:00pm 22.5 19.6 1.6 25 10.0 NNW 6 13 3 7 1018.6 1017.3 0.0
26/01:30pm 22.4 18.5 1.1 24 10.1 N 11 20 6 11 1018.7 1017.4 0.0
26/01:00pm 22.0 18.9 3.4 29 9.2 N 9 22 5 12 1019.1 1017.8 0.0
26/12:30pm 21.6 18.1 3.6 30 8.9 SE 11 24 6 13 1019.4 1018.1 0.0
26/12:00pm 20.5 17.6 4.7 35 7.9 ESE 9 17 5 9 1019.9 1018.6 0.0
26/11:30am 20.5 17.0 5.6 37 7.6 ENE 13 20 7 11 1020.5 1019.3 0.0
26/11:00am 20.6 17.0 5.2 36 7.8 ESE 13 20 7 11 1021.2 1019.9 0.0
26/10:30am 19.4 16.1 4.4 37 7.4 SE 11 20 6 11 1021.8 1020.5 0.0
26/10:00am 18.6 14.6 4.9 40 6.8 ESE 15 22 8 12 1022.2 1021.0 0.0
26/09:30am 18.0 14.4 5.1 42 6.4 ESE 13 22 7 12 1022.4 1021.2 0.0
26/09:00am 16.7 12.0 5.1 46 5.7 E 19 24 10 13 1022.7 1021.4 0.0
26/08:30am 15.6 11.3 5.1 49 5.1 ESE 17 22 9 12 1022.8 1021.5 0.0
26/08:00am 13.9 9.0 4.9 54 4.3 ESE 20 28 11 15 1022.7 1021.4 0.0
26/07:30am 12.6 7.6 4.8 59 3.7 ESE 20 28 11 15 1022.8 1021.5 0.0
26/07:00am 10.8 6.4 4.8 66 2.8 ESE 17 22 9 12 1022.5 1021.3 0.0
26/06:30am 9.2 4.8 4.6 73 2.1 ESE 17 24 9 13 1022.2 1021.0 0.0
26/06:00am 8.2 4.1 4.4 77 1.7 ESE 15 20 8 11 1022.1 1020.9 0.0
26/05:30am 7.9 3.8 4.6 80 1.5 SE 15 19 8 10 1021.9 1020.6 0.0
26/05:00am 8.0 4.4 4.9 81 1.4 SE 13 19 7 10 1021.6 1020.3 0.0
26/04:30am 8.4 4.9 5.4 81 1.4 SE 13 17 7 9 1021.4 1020.1 0.0
26/04:00am 8.8 5.0 5.6 80 1.5 ESE 15 17 8 9 1021.2 1019.9 0.0
26/03:30am 9.3 5.9 5.7 78 1.7 ESE 13 17 7 9 1020.9 1019.6 0.0
26/03:00am 9.5 5.7 5.7 77 1.8 ESE 15 20 8 11 1020.7 1019.5 0.0
26/02:30am 9.9 5.7 5.7 75 2.0 ESE 17 20 9 11 1020.7 1019.5 0.0
26/02:00am 10.2 6.3 5.5 72 2.2 ESE 15 19 8 10 1020.6 1019.4 0.0
26/01:30am 10.8 6.6 5.8 71 2.4 SE 17 22 9 12 1020.9 1019.6 0.0
26/01:00am 11.1 7.3 5.9 70 2.5 ESE 15 22 8 12 1020.7 1019.5 0.0
26/12:30am 11.5 8.1 5.9 68 2.7 SE 13 19 7 10 1020.9 1019.6 0.0
26/12:00am 11.6 8.4 5.3 65 3.0 ESE 11 15 6 8 1020.9 1019.6 0.0
 
Date/Time
WST
Temp
°C
App
Temp
°C
Dew
Point
Rel
Hum
%
Delta-T
°C
Wind Press
QNH
hPa
Press
MSL
hPa
Rain
since 9 am
mm
Dir
 
Spd
km/h
Gust
km/h
Spd
kts
Gust
kts
25/11:30pm 12.6 9.8 5.3 61 3.5 E 9 11 5 6 1021.1 1019.8 0.0
25/11:00pm 13.6 10.8 5.1 56 4.1 ENE 9 13 5 7 1021.2 1019.9 0.0
25/10:30pm 14.3 11.5 5.0 53 4.5 E 9 13 5 7 1021.1 1019.8 0.0
25/10:00pm 14.7 10.8 1.0 39 6.1 ESE 11 15 6 8 1021.3 1020.0 0.0
25/09:30pm 15.4 11.1 0.8 37 6.5 SE 13 19 7 10 1021.5 1020.2 0.0
25/09:00pm 16.5 11.0 0.3 33 7.2 SSE 19 22 10 12 1021.5 1020.2 0.0
25/08:30pm 17.5 12.6 1.7 34 7.3 SSE 17 24 9 13 1021.4 1020.1 0.0
25/08:00pm 17.8 16.3 5.1 43 6.3 E 2 7 1 4 1021.3 1020.0 0.0
25/07:30pm 18.2 15.6 4.3 39 6.8 ENE 7 11 4 6 1020.9 1019.6 0.0
25/07:00pm 18.5 15.3 3.3 36 7.3 SSE 9 15 5 8 1020.5 1019.3 0.0
25/06:30pm 18.9 14.9 3.1 35 7.6 E 13 17 7 9 1020.1 1018.8 0.0
25/06:00pm 19.6 16.2 1.7 30 8.4 S 9 13 5 7 1020.0 1018.7 0.0
25/05:30pm 20.0 15.8 1.8 29 8.6 S 13 17 7 9 1019.4 1018.1 0.0
25/05:00pm 20.7 16.4 1.0 27 9.2 S 13 17 7 9 1019.1 1017.8 0.0
25/04:30pm 21.7 18.2 -1.5 21 10.4 W 7 11 4 6 1018.8 1017.5 0.0
25/04:00pm 22.1 18.8 -1.0 21 10.5 WSW 6 11 3 6 1018.7 1017.4 0.0
25/03:30pm 22.1 18.2 -1.4 20 10.6 WNW 9 15 5 8 1018.6 1017.3 0.0
25/03:00pm 22.1 18.8 -0.2 22 10.3 NE 7 13 4 7 1018.6 1017.3 0.0
25/02:30pm 21.9 18.6 0.1 23 10.1 N 7 11 4 6 1018.7 1017.4 0.0
25/02:00pm 22.3 18.0 -1.4 20 10.7 NW 11 19 6 10 1018.9 1017.6 0.0

Other Formats:

Comma delimited format used in spreadsheet applications
http://www.bom.gov.au/fwo/IDW60801/IDW60801.94461.axf

JavaScript Object Notation format (JSON) in row-major order
http://www.bom.gov.au/fwo/IDW60801/IDW60801.94461.json